Sagerton, Texas
Current Conditions -  °F | °C
As of 5:58 PM on Monday 20 Oct 2014 (Local Time) from KDYS Reporting Station
Scattered Clouds Scattered Clouds  
Wind Chill: 80°   Ceiling: Unl
Heat Index: 80°   Visibility: 10mi
Dew Point: 56°   Wind: 8mph
Humidity: 42%   Direction: 110°ESE
Pressure: 30.01"   Gusts: NA
Location:  33.036°N, 99.8727°W
Report Text: KDYS 202258Z AUTO 11007KT 10SM SCT060 27/13 A3001 RMK AO2 SLP127 T02690131
Loading
Personal Weather Stations






























Interactive Weather Map
Tropical Storm Tracking
New forecast layout! Learn more

10-Day Weather Forecast

Advertisements
Track Severe Weather on mobile